Time;durP1;ratioP1;P1;durP2;ratioP2;P2;SDS_P1;SDS_P2;PMS_P1;PMS_P2;Temp;Humidity;BMP_temperature;BMP_pressure;BME280_temperature;BME280_humidity;BME280_pressure;Samples;Min_cycle;Max_cycle;Signal;HPM_P1;HPM_P2
2022/01/03 00:01:05;;;;;;;;;;;8.00;63.50;;;;;;5113854;28;20335;-66
2022/01/03 00:03:31;;;;;;;;;;;8.00;63.60;;;;;;5113829;28;19912;-65
2022/01/03 00:05:57;;;;;;;;;;;8.00;63.60;;;;;;5106969;28;19999;-65
2022/01/03 00:08:23;;;;;;;;;;;8.00;63.70;;;;;;5098352;28;19912;-66
2022/01/03 00:10:48;;;;;;;;;;;8.00;63.70;;;;;;5111759;28;19912;-65
2022/01/03 00:13:14;;;;;;;;;;;8.00;63.70;;;;;;5100208;28;19927;-66
2022/01/03 00:15:40;;;;;;;;;;;8.00;63.60;;;;;;5113553;28;19980;-66
2022/01/03 00:18:05;;;;;;;;;;;8.00;63.70;;;;;;5103759;28;19927;-66
2022/01/03 00:20:31;;;;;;;;;;;8.00;63.80;;;;;;5093171;28;20018;-66
2022/01/03 00:23:07;;;;;;;;;;;8.00;63.80;;;;;;5091918;28;19908;-66
2022/01/03 00:25:36;;;;;;;;;;;8.00;63.80;;;;;;5093144;28;19915;-66
2022/01/03 00:28:07;;;;;;;;;;;8.00;63.80;;;;;;5092960;28;20021;-66
2022/01/03 00:30:37;;;;;;;;;;;8.00;63.90;;;;;;5103524;28;20348;-66
2022/01/03 00:33:04;;;;;;;;;;;8.00;63.90;;;;;;5108527;28;19919;-65
2022/01/03 00:35:31;;;;;;;;;;;8.00;63.90;;;;;;5093848;28;19908;-66
2022/01/03 00:37:59;;;;;;;;;;;8.10;64.00;;;;;;5100687;28;20357;-66
2022/01/03 00:40:25;;;;;;;;;;;8.10;63.90;;;;;;5113314;28;19915;-66
2022/01/03 00:42:51;;;;;;;;;;;8.10;63.90;;;;;;5099952;28;19908;-66
2022/01/03 00:45:16;;;;;;;;;;;8.10;63.80;;;;;;5092893;28;19929;-66
2022/01/03 00:47:42;;;;;;;;;;;8.10;63.80;;;;;;5092832;28;19912;-66
2022/01/03 00:50:12;;;;;;;;;;;8.10;63.90;;;;;;5092705;28;19950;-66
2022/01/03 00:52:38;;;;;;;;;;;8.10;63.90;;;;;;5092805;28;19930;-66
2022/01/03 00:55:04;;;;;;;;;;;8.00;63.80;;;;;;5106199;28;20353;-66
2022/01/03 00:57:33;;;;;;;;;;;8.00;63.80;;;;;;5113107;28;19922;-66
2022/01/03 01:00:02;;;;;;;;;;;8.00;63.80;;;;;;5112051;28;20014;-66
2022/01/03 01:02:32;;;;;;;;;;;8.00;63.80;;;;;;5097280;28;19916;-66
2022/01/03 01:04:58;;;;;;;;;;;8.00;64.00;;;;;;5092731;28;19913;-66
2022/01/03 01:07:25;;;;;;;;;;;8.00;64.00;;;;;;5095634;28;19915;-66
2022/01/03 01:09:51;;;;;;;;;;;8.00;64.00;;;;;;5113002;28;19933;-66
2022/01/03 01:12:18;;;;;;;;;;;7.90;64.00;;;;;;5111709;28;19919;-66
2022/01/03 01:14:43;;;;;;;;;;;8.00;64.10;;;;;;5113131;28;19908;-66
2022/01/03 01:17:09;;;;;;;;;;;8.00;64.10;;;;;;5112930;28;19964;-66
2022/01/03 01:19:35;;;;;;;;;;;8.00;64.10;;;;;;5112900;28;19919;-65
2022/01/03 01:22:01;;;;;;;;;;;8.00;64.20;;;;;;5112897;28;19977;-66
2022/01/03 01:24:33;;;;;;;;;;;8.00;64.20;;;;;;5111596;28;19908;-66
2022/01/03 01:29:42;;;;;;;;;;;8.10;64.30;;;;;;5112829;28;19914;-66
2022/01/03 01:32:10;;;;;;;;;;;8.10;64.20;;;;;;5112761;28;19986;-66
2022/01/03 01:34:39;;;;;;;;;;;8.10;64.10;;;;;;5112818;28;20373;-66
2022/01/03 01:37:05;;;;;;;;;;;8.10;64.00;;;;;;5112579;28;19912;-66
2022/01/03 01:39:30;;;;;;;;;;;8.10;63.90;;;;;;5112666;28;19911;-66
2022/01/03 01:41:58;;;;;;;;;;;8.00;63.80;;;;;;5112541;28;20015;-66
2022/01/03 01:44:24;;;;;;;;;;;8.00;63.70;;;;;;5112537;28;20274;-65
2022/01/03 01:46:55;;;;;;;;;;;8.00;63.70;;;;;;5103545;28;19955;-66
2022/01/03 01:49:23;;;;;;;;;;;7.90;63.60;;;;;;5108482;28;19912;-66
2022/01/03 01:51:56;;;;;;;;;;;7.90;63.70;;;;;;5109329;28;19955;-66
2022/01/03 01:54:27;;;;;;;;;;;7.90;63.80;;;;;;5092156;28;19919;-67
2022/01/03 01:57:07;;;;;;;;;;;7.80;63.80;;;;;;5092054;28;19944;-66
2022/01/03 01:59:35;;;;;;;;;;;7.80;63.80;;;;;;5092005;28;20353;-65
2022/01/03 02:02:03;;;;;;;;;;;7.80;64.00;;;;;;5091713;28;19908;-66
2022/01/03 02:04:43;;;;;;;;;;;7.70;64.00;;;;;;5099023;28;20285;-67
2022/01/03 02:07:27;;;;;;;;;;;7.70;64.10;;;;;;5101158;28;20387;-67
2022/01/03 02:10:02;;;;;;;;;;;7.70;64.20;;;;;;5090837;28;19908;-67
2022/01/03 02:12:28;;;;;;;;;;;7.70;64.30;;;;;;5095599;28;19915;-65
2022/01/03 02:14:57;;;;;;;;;;;7.60;64.30;;;;;;5095405;28;19908;-66
2022/01/03 02:17:23;;;;;;;;;;;7.60;64.30;;;;;;5109594;28;19958;-66
2022/01/03 02:20:05;;;;;;;;;;;7.60;64.40;;;;;;5102288;28;20337;-66
2022/01/03 02:22:30;;;;;;;;;;;7.60;64.40;;;;;;5115636;28;19908;-66
2022/01/03 02:24:56;;;;;;;;;;;7.50;64.40;;;;;;5103878;28;19933;-65
2022/01/03 02:27:22;;;;;;;;;;;7.50;64.50;;;;;;5095348;28;20277;-66
2022/01/03 02:29:47;;;;;;;;;;;7.50;64.50;;;;;;5095137;28;19912;-66
2022/01/03 02:32:13;;;;;;;;;;;7.50;64.50;;;;;;5095003;28;19912;-65
2022/01/03 02:34:40;;;;;;;;;;;7.50;64.50;;;;;;5098780;28;19919;-66
2022/01/03 02:37:06;;;;;;;;;;;7.40;64.50;;;;;;5094877;28;19919;-66
2022/01/03 02:39:32;;;;;;;;;;;7.40;64.50;;;;;;5123454;27;19919;-66
2022/01/03 02:41:58;;;;;;;;;;;7.30;64.50;;;;;;5107496;28;19945;-65
2022/01/03 02:44:23;;;;;;;;;;;7.40;64.70;;;;;;5099583;28;20004;-66
2022/01/03 02:46:49;;;;;;;;;;;7.30;64.70;;;;;;5094711;28;19934;-66
2022/01/03 02:49:15;;;;;;;;;;;7.30;64.70;;;;;;5094668;28;19912;-66
2022/01/03 02:51:43;;;;;;;;;;;7.30;64.80;;;;;;5094758;28;20011;-66
2022/01/03 02:54:08;;;;;;;;;;;7.30;64.90;;;;;;5094604;28;19944;-66
2022/01/03 02:56:34;;;;;;;;;;;7.30;64.90;;;;;;5094553;28;20438;-65
2022/01/03 02:59:00;;;;;;;;;;;7.30;64.90;;;;;;5094509;28;19916;-66
2022/01/03 03:01:26;;;;;;;;;;;7.30;65.00;;;;;;5094478;28;20622;-66
2022/01/03 03:03:52;;;;;;;;;;;7.30;65.00;;;;;;5094811;28;19969;-66
2022/01/03 03:06:17;;;;;;;;;;;7.40;65.20;;;;;;5106910;28;20374;-66
2022/01/03 03:08:43;;;;;;;;;;;7.30;65.10;;;;;;5113080;28;19912;-66
2022/01/03 03:11:09;;;;;;;;;;;7.40;65.20;;;;;;5112952;28;19958;-66
2022/01/03 03:13:34;;;;;;;;;;;7.40;65.20;;;;;;5098095;28;19912;-66
2022/01/03 03:16:00;;;;;;;;;;;7.40;65.30;;;;;;5093995;28;20379;-66
2022/01/03 03:18:25;;;;;;;;;;;7.40;65.30;;;;;;5094337;28;20289;-65
2022/01/03 03:20:54;;;;;;;;;;;7.40;65.20;;;;;;5094201;28;19922;-66
2022/01/03 03:23:20;;;;;;;;;;;7.50;65.30;;;;;;5093304;28;19957;-66
2022/01/03 03:25:46;;;;;;;;;;;7.50;65.20;;;;;;5094075;28;19912;-66
2022/01/03 03:28:13;;;;;;;;;;;7.50;65.30;;;;;;5097678;28;19923;-66
2022/01/03 03:30:40;;;;;;;;;;;7.50;65.30;;;;;;5103062;28;20380;-66
2022/01/03 03:33:16;;;;;;;;;;;7.50;65.30;;;;;;5100046;28;19912;-66
2022/01/03 03:35:42;;;;;;;;;;;7.50;65.30;;;;;;5093843;28;20373;-66
2022/01/03 03:38:08;;;;;;;;;;;7.60;65.40;;;;;;5101613;28;19916;-66
2022/01/03 03:40:33;;;;;;;;;;;7.60;65.40;;;;;;5112521;28;19919;-66
2022/01/03 03:42:59;;;;;;;;;;;7.60;65.40;;;;;;5110153;28;19907;-66
2022/01/03 03:45:25;;;;;;;;;;;7.60;65.50;;;;;;5097184;28;19912;-66
2022/01/03 03:47:51;;;;;;;;;;;7.70;65.60;;;;;;5093548;28;19930;-66
2022/01/03 03:50:18;;;;;;;;;;;7.70;65.60;;;;;;5092358;28;19912;-66
2022/01/03 03:52:43;;;;;;;;;;;7.80;65.60;;;;;;5093500;28;19919;-66
2022/01/03 03:55:09;;;;;;;;;;;7.80;65.60;;;;;;5093472;28;20393;-66
2022/01/03 03:57:35;;;;;;;;;;;7.90;65.60;;;;;;5093291;28;19912;-66
2022/01/03 04:00:01;;;;;;;;;;;7.90;65.50;;;;;;5105574;28;19931;-65
2022/01/03 04:02:26;;;;;;;;;;;7.90;65.40;;;;;;5106567;28;20011;-65
2022/01/03 04:04:52;;;;;;;;;;;8.00;65.40;;;;;;5111834;28;19962;-65
2022/01/03 04:07:17;;;;;;;;;;;8.00;65.30;;;;;;5111873;28;19932;-65
2022/01/03 04:09:43;;;;;;;;;;;8.00;65.30;;;;;;5112843;28;19915;-65
2022/01/03 04:12:09;;;;;;;;;;;8.00;65.30;;;;;;5104355;28;20015;-65
2022/01/03 04:14:34;;;;;;;;;;;8.10;65.40;;;;;;5113243;28;19916;-65
2022/01/03 04:17:00;;;;;;;;;;;8.10;65.30;;;;;;5102499;28;19926;-66
2022/01/03 04:19:25;;;;;;;;;;;8.20;65.40;;;;;;5111657;28;19961;-66
2022/01/03 04:21:53;;;;;;;;;;;8.20;65.40;;;;;;5112266;28;20312;-65
2022/01/03 04:24:19;;;;;;;;;;;8.20;65.30;;;;;;5113095;28;19919;-65
2022/01/03 04:26:45;;;;;;;;;;;8.30;65.40;;;;;;5112065;28;19964;-65
2022/01/03 04:29:11;;;;;;;;;;;8.30;65.40;;;;;;5108832;28;19962;-65
2022/01/03 04:31:38;;;;;;;;;;;8.40;65.50;;;;;;5092597;28;19948;-65
2022/01/03 04:34:04;;;;;;;;;;;8.40;65.50;;;;;;5096032;28;19916;-66
2022/01/03 04:36:29;;;;;;;;;;;8.50;65.50;;;;;;5113228;28;20326;-65
2022/01/03 04:38:55;;;;;;;;;;;8.50;65.40;;;;;;5111035;28;19911;-66
2022/01/03 04:41:20;;;;;;;;;;;8.60;65.30;;;;;;5092796;28;19908;-65
2022/01/03 04:43:46;;;;;;;;;;;8.60;65.20;;;;;;5092762;28;19957;-66
2022/01/03 04:46:12;;;;;;;;;;;8.70;65.20;;;;;;5092637;28;19964;-65
2022/01/03 04:48:38;;;;;;;;;;;8.70;65.20;;;;;;5092474;28;19972;-65
2022/01/03 04:51:04;;;;;;;;;;;8.70;65.20;;;;;;5092649;28;19944;-66
2022/01/03 04:53:29;;;;;;;;;;;8.80;65.30;;;;;;5092685;28;20348;-66
2022/01/03 04:55:55;;;;;;;;;;;8.80;65.20;;;;;;5092634;28;19912;-66
2022/01/03 04:58:20;;;;;;;;;;;8.80;65.10;;;;;;5092642;28;20034;-66
2022/01/03 05:00:47;;;;;;;;;;;8.90;65.20;;;;;;5092197;28;19920;-66
2022/01/03 05:03:13;;;;;;;;;;;8.90;65.20;;;;;;5108854;28;19908;-66
2022/01/03 05:05:38;;;;;;;;;;;9.00;65.20;;;;;;5112514;28;19922;-66
2022/01/03 05:08:04;;;;;;;;;;;9.00;65.20;;;;;;5112781;28;19912;-66
2022/01/03 05:10:30;;;;;;;;;;;9.10;65.20;;;;;;5103556;28;20284;-66
2022/01/03 05:12:55;;;;;;;;;;;9.10;65.10;;;;;;5098074;28;19912;-66
2022/01/03 05:15:21;;;;;;;;;;;9.10;65.10;;;;;;5112073;28;19926;-66
2022/01/03 05:17:46;;;;;;;;;;;9.20;65.20;;;;;;5104932;28;19920;-67
2022/01/03 05:20:12;;;;;;;;;;;9.30;65.20;;;;;;5090797;28;19963;-66
2022/01/03 05:22:38;;;;;;;;;;;9.30;65.10;;;;;;5092444;28;19998;-66
2022/01/03 05:25:04;;;;;;;;;;;9.30;65.10;;;;;;5092371;28;20326;-66
2022/01/03 05:27:30;;;;;;;;;;;9.30;64.90;;;;;;5091711;28;19908;-66
2022/01/03 05:29:56;;;;;;;;;;;9.40;64.90;;;;;;5100743;28;20377;-66
2022/01/03 05:32:21;;;;;;;;;;;9.40;64.80;;;;;;5095674;28;19916;-66
2022/01/03 05:34:47;;;;;;;;;;;9.40;64.80;;;;;;5092283;28;19934;-66
2022/01/03 05:37:12;;;;;;;;;;;9.40;64.70;;;;;;5092190;28;19916;-66
2022/01/03 05:39:38;;;;;;;;;;;9.50;64.80;;;;;;5092227;28;19912;-66
2022/01/03 05:42:04;;;;;;;;;;;9.50;64.80;;;;;;5095857;28;19923;-66
2022/01/03 05:44:29;;;;;;;;;;;9.50;64.80;;;;;;5092466;28;19907;-66
2022/01/03 05:46:55;;;;;;;;;;;9.50;64.80;;;;;;5095811;28;19916;-66
2022/01/03 05:49:20;;;;;;;;;;;9.50;64.80;;;;;;5096122;28;20014;-66
2022/01/03 05:51:46;;;;;;;;;;;9.60;64.80;;;;;;5094780;28;19966;-66
2022/01/03 05:54:12;;;;;;;;;;;9.60;64.90;;;;;;5096401;28;19915;-66
2022/01/03 05:56:37;;;;;;;;;;;9.60;64.80;;;;;;5095697;28;19913;-66
2022/01/03 05:59:07;;;;;;;;;;;9.70;64.90;;;;;;5095695;28;20506;-66
2022/01/03 06:01:34;;;;;;;;;;;9.70;64.90;;;;;;5101521;28;20053;-66
2022/01/03 06:04:11;;;;;;;;;;;9.70;64.90;;;;;;5103650;28;20002;-66
2022/01/03 06:06:53;;;;;;;;;;;9.70;64.90;;;;;;5101150;28;19912;-66
2022/01/03 06:09:19;;;;;;;;;;;9.80;64.90;;;;;;5110793;28;20273;-66
2022/01/03 06:11:45;;;;;;;;;;;9.80;64.90;;;;;;5104188;28;19916;-66
2022/01/03 06:14:10;;;;;;;;;;;9.80;64.90;;;;;;5095595;28;19912;-66
2022/01/03 06:16:36;;;;;;;;;;;9.90;64.90;;;;;;5095171;28;20431;-66
2022/01/03 06:19:02;;;;;;;;;;;9.90;64.80;;;;;;5107897;28;19916;-66
2022/01/03 06:21:27;;;;;;;;;;;9.90;64.80;;;;;;5103906;28;19912;-66
2022/01/03 06:23:53;;;;;;;;;;;9.90;64.70;;;;;;5095312;28;19965;-67
2022/01/03 06:26:18;;;;;;;;;;;10.00;64.70;;;;;;5095102;28;19918;-66
2022/01/03 06:28:44;;;;;;;;;;;10.00;64.60;;;;;;5095210;28;19914;-66
2022/01/03 06:31:10;;;;;;;;;;;10.00;64.50;;;;;;5093727;28;19912;-67
2022/01/03 06:33:35;;;;;;;;;;;9.90;64.40;;;;;;5095168;28;19908;-66
2022/01/03 06:36:01;;;;;;;;;;;9.90;64.40;;;;;;5102750;28;20431;-66
2022/01/03 06:38:26;;;;;;;;;;;9.90;65.30;;;;;;5115143;27;20292;-66
2022/01/03 06:40:52;;;;;;;;;;;9.90;64.50;;;;;;5111237;28;19923;-66
2022/01/03 06:43:18;;;;;;;;;;;9.90;65.00;;;;;;5094953;28;20037;-66
2022/01/03 06:45:44;;;;;;;;;;;9.90;65.30;;;;;;5094649;28;20384;-66
2022/01/03 06:48:09;;;;;;;;;;;9.90;65.30;;;;;;5094721;28;19908;-66
2022/01/03 06:50:36;;;;;;;;;;;10.00;65.50;;;;;;5094618;28;19935;-66
2022/01/03 06:53:05;;;;;;;;;;;10.10;65.60;;;;;;5094501;28;20024;-66
2022/01/03 06:55:30;;;;;;;;;;;10.10;65.60;;;;;;5094592;28;19920;-66
2022/01/03 06:57:56;;;;;;;;;;;10.10;65.50;;;;;;5092037;28;19908;-67
2022/01/03 07:00:21;;;;;;;;;;;10.10;65.40;;;;;;5110388;28;19925;-66
2022/01/03 07:02:47;;;;;;;;;;;10.20;65.40;;;;;;5096543;28;20258;-66
2022/01/03 07:05:14;;;;;;;;;;;10.20;65.30;;;;;;5098195;28;19969;-66
2022/01/03 07:07:40;;;;;;;;;;;10.20;65.20;;;;;;5112432;28;19911;-66
2022/01/03 07:10:06;;;;;;;;;;;10.20;65.20;;;;;;5114330;28;19976;-66
2022/01/03 07:12:32;;;;;;;;;;;10.20;65.20;;;;;;5114393;28;20300;-67
2022/01/03 07:20:09;;;;;;;;;;;10.20;65.20;;;;;;5095051;28;19962;-66
2022/01/03 07:22:39;;;;;;;;;;;10.20;65.40;;;;;;5094768;28;20353;-67
2022/01/03 07:25:05;;;;;;;;;;;10.20;65.60;;;;;;5094782;28;19923;-66
2022/01/03 07:27:31;;;;;;;;;;;10.30;65.70;;;;;;5098868;28;19965;-66
2022/01/03 07:29:56;;;;;;;;;;;10.40;65.90;;;;;;5113368;28;19907;-66
2022/01/03 07:32:22;;;;;;;;;;;10.50;66.00;;;;;;5109148;28;19908;-66
2022/01/03 07:34:47;;;;;;;;;;;10.60;66.10;;;;;;5101916;28;19919;-67
2022/01/03 07:37:13;;;;;;;;;;;10.70;66.00;;;;;;5115091;28;19908;-66
2022/01/03 07:39:39;;;;;;;;;;;10.80;65.90;;;;;;5115198;28;20434;-66
2022/01/03 07:42:05;;;;;;;;;;;10.80;65.70;;;;;;5115059;28;19911;-67
2022/01/03 07:44:30;;;;;;;;;;;10.90;66.30;;;;;;5113420;28;20284;-66
2022/01/03 07:46:56;;;;;;;;;;;11.00;65.30;;;;;;5113637;28;19908;-67
2022/01/03 07:49:22;;;;;;;;;;;11.10;65.20;;;;;;5098794;28;19912;-66
2022/01/03 07:51:48;;;;;;;;;;;11.20;65.20;;;;;;5114922;28;19994;-66
2022/01/03 07:54:14;;;;;;;;;;;11.20;65.00;;;;;;5104535;28;19957;-67
2022/01/03 07:56:39;;;;;;;;;;;11.30;64.90;;;;;;5094442;28;19908;-67
2022/01/03 07:59:05;;;;;;;;;;;11.30;64.70;;;;;;5111521;28;19954;-67
2022/01/03 08:01:31;;;;;;;;;;;11.40;64.60;;;;;;5098175;28;19923;-67
2022/01/03 08:03:57;;;;;;;;;;;11.40;64.50;;;;;;5114606;28;19907;-66
2022/01/03 08:06:22;;;;;;;;;;;11.50;64.50;;;;;;5107047;28;19930;-66
2022/01/03 08:08:48;;;;;;;;;;;11.60;64.40;;;;;;5093767;28;19908;-67
2022/01/03 08:11:14;;;;;;;;;;;11.60;64.30;;;;;;5094044;28;19908;-67
2022/01/03 08:13:39;;;;;;;;;;;11.70;64.20;;;;;;5097848;28;19942;-67
2022/01/03 08:16:05;;;;;;;;;;;11.70;64.10;;;;;;5102310;28;20265;-67
2022/01/03 08:18:33;;;;;;;;;;;11.70;64.10;;;;;;5114397;28;20023;-67
2022/01/03 08:20:59;;;;;;;;;;;11.80;64.00;;;;;;5097398;28;20006;-67
2022/01/03 08:23:25;;;;;;;;;;;11.90;64.00;;;;;;5093917;28;19943;-67
2022/01/03 08:25:51;;;;;;;;;;;11.90;63.60;;;;;;5093823;28;19945;-67
2022/01/03 08:28:16;;;;;;;;;;;12.00;63.40;;;;;;5093988;28;20008;-67
2022/01/03 08:30:42;;;;;;;;;;;12.10;63.40;;;;;;5093748;28;19908;-67
2022/01/03 08:33:08;;;;;;;;;;;12.10;63.20;;;;;;5110301;28;19953;-67
2022/01/03 08:35:33;;;;;;;;;;;12.20;63.30;;;;;;5113393;28;19958;-66
2022/01/03 08:37:59;;;;;;;;;;;12.30;63.10;;;;;;5111059;28;19913;-67
2022/01/03 08:40:25;;;;;;;;;;;12.40;62.90;;;;;;5113535;28;19918;-67
2022/01/03 08:42:51;;;;;;;;;;;12.50;62.90;;;;;;5100694;28;20357;-67
2022/01/03 08:45:17;;;;;;;;;;;12.60;62.80;;;;;;5112002;28;19908;-67
2022/01/03 08:47:43;;;;;;;;;;;12.60;62.80;;;;;;5113427;28;20003;-67
2022/01/03 08:50:09;;;;;;;;;;;12.70;62.60;;;;;;5111506;28;19923;-67
2022/01/03 08:52:34;;;;;;;;;;;12.70;62.30;;;;;;5098748;28;20285;-67
2022/01/03 08:55:00;;;;;;;;;;;12.80;62.30;;;;;;5096117;28;19913;-67
2022/01/03 08:57:25;;;;;;;;;;;12.90;62.00;;;;;;5109407;28;19919;-67
2022/01/03 08:59:51;;;;;;;;;;;12.90;61.90;;;;;;5125370;28;20058;-67
2022/01/03 09:02:18;;;;;;;;;;;13.00;61.80;;;;;;5112683;28;20277;-67
2022/01/03 09:04:44;;;;;;;;;;;13.10;61.60;;;;;;5113650;28;20439;-67
2022/01/03 09:07:10;;;;;;;;;;;13.10;61.30;;;;;;5113436;28;19916;-66
2022/01/03 09:09:36;;;;;;;;;;;13.10;61.20;;;;;;5113645;28;19915;-67
2022/01/03 09:12:03;;;;;;;;;;;13.20;61.20;;;;;;5103379;28;19912;-67
2022/01/03 09:14:28;;;;;;;;;;;13.20;61.00;;;;;;5091742;28;19912;-67
2022/01/03 09:16:54;;;;;;;;;;;13.20;60.70;;;;;;5093242;28;19927;-66
2022/01/03 09:19:20;;;;;;;;;;;13.30;60.70;;;;;;5093267;28;19915;-66
2022/01/03 09:21:46;;;;;;;;;;;13.30;60.70;;;;;;5096794;28;19908;-67
2022/01/03 09:24:28;;;;;;;;;;;13.40;60.60;;;;;;5107609;28;19915;-66
2022/01/03 09:29:37;;;;;;;;;;;13.40;60.30;;;;;;5097162;28;19946;-66
2022/01/03 09:32:03;;;;;;;;;;;13.40;60.10;;;;;;5096841;28;19947;-66
2022/01/03 09:34:29;;;;;;;;;;;13.40;60.10;;;;;;5097088;28;19908;-67
2022/01/03 09:36:54;;;;;;;;;;;13.40;60.00;;;;;;5096798;28;19935;-66
2022/01/03 09:39:20;;;;;;;;;;;13.50;60.00;;;;;;5098311;28;19916;-66
2022/01/03 09:42:07;;;;;;;;;;;13.40;59.80;;;;;;5106870;28;19962;-66
2022/01/03 09:44:34;;;;;;;;;;;13.40;59.70;;;;;;5102205;28;20018;-66
2022/01/03 09:47:01;;;;;;;;;;;13.50;59.70;;;;;;5110772;28;20340;-66
2022/01/03 09:49:31;;;;;;;;;;;13.50;59.70;;;;;;5111026;27;19945;-67
2022/01/03 09:51:57;;;;;;;;;;;13.50;59.80;;;;;;5097285;28;20349;-67
2022/01/03 09:54:23;;;;;;;;;;;13.50;59.80;;;;;;5104309;28;19935;-67
2022/01/03 09:56:50;;;;;;;;;;;13.50;59.80;;;;;;5110243;28;20353;-67
2022/01/03 09:59:16;;;;;;;;;;;13.50;59.80;;;;;;5107673;28;19916;-67
2022/01/03 10:01:42;;;;;;;;;;;13.50;59.90;;;;;;5114313;28;19919;-67
2022/01/03 10:04:09;;;;;;;;;;;13.50;60.00;;;;;;5111452;28;19912;-64
2022/01/03 10:06:36;;;;;;;;;;;13.50;60.00;;;;;;5097133;28;20054;-64
2022/01/03 10:09:02;;;;;;;;;;;13.50;60.10;;;;;;5096675;28;20003;-63
2022/01/03 10:11:28;;;;;;;;;;;13.50;60.10;;;;;;5096511;28;20007;-64
2022/01/03 10:13:53;;;;;;;;;;;13.50;60.00;;;;;;5096337;28;19947;-64
2022/01/03 10:16:19;;;;;;;;;;;13.50;59.90;;;;;;5096198;28;19916;-64
2022/01/03 10:18:48;;;;;;;;;;;13.50;60.00;;;;;;5096321;28;19912;-64
2022/01/03 10:21:31;;;;;;;;;;;13.40;60.10;;;;;;5096252;28;19919;-64
2022/01/03 10:23:57;;;;;;;;;;;13.40;61.00;;;;;;5096224;28;19908;-64
2022/01/03 10:26:23;;;;;;;;;;;13.40;60.30;;;;;;5096056;28;20025;-64
2022/01/03 10:28:49;;;;;;;;;;;13.40;60.50;;;;;;5096019;28;20376;-64
2022/01/03 10:31:26;;;;;;;;;;;13.40;60.60;;;;;;5095790;28;19908;-64
2022/01/03 10:34:04;;;;;;;;;;;13.50;60.70;;;;;;5096067;28;19998;-64
2022/01/03 10:36:31;;;;;;;;;;;13.60;60.60;;;;;;5094747;28;19948;-64
2022/01/03 10:38:59;;;;;;;;;;;13.60;60.60;;;;;;5095801;28;19908;-64
2022/01/03 10:41:25;;;;;;;;;;;13.70;60.70;;;;;;5095851;28;19908;-64
2022/01/03 10:43:52;;;;;;;;;;;13.80;60.60;;;;;;5095770;28;20011;-64
2022/01/03 10:46:26;;;;;;;;;;;13.80;60.50;;;;;;5095812;28;19995;-64
2022/01/03 10:48:53;;;;;;;;;;;13.80;60.30;;;;;;5095768;28;19912;-64
2022/01/03 10:51:26;;;;;;;;;;;13.90;60.30;;;;;;5095727;28;19908;-64
2022/01/03 10:53:54;;;;;;;;;;;13.90;60.20;;;;;;5104278;28;19911;-64
2022/01/03 10:56:24;;;;;;;;;;;13.90;60.10;;;;;;5116277;28;19908;-64
2022/01/03 10:58:51;;;;;;;;;;;14.00;60.20;;;;;;5115987;28;19907;-64
2022/01/03 11:01:23;;;;;;;;;;;14.10;60.20;;;;;;5115877;28;20010;-64
2022/01/03 11:03:49;;;;;;;;;;;14.10;59.90;;;;;;5114805;28;20326;-64
2022/01/03 11:11:34;;;;;;;;;;;14.10;59.80;;;;;;5116065;28;20340;-64
2022/01/03 11:14:00;;;;;;;;;;;14.20;59.90;;;;;;5114320;28;19908;-64
2022/01/03 11:16:30;;;;;;;;;;;14.20;59.80;;;;;;5115434;28;19942;-64
2022/01/03 11:18:56;;;;;;;;;;;14.30;59.90;;;;;;5115511;28;19908;-64
2022/01/03 11:21:24;;;;;;;;;;;14.30;59.80;;;;;;5115579;28;19961;-64
2022/01/03 11:23:58;;;;;;;;;;;14.40;59.70;;;;;;5115372;28;19908;-64
2022/01/03 11:26:25;;;;;;;;;;;14.40;59.60;;;;;;5110379;28;20292;-64
2022/01/03 11:28:51;;;;;;;;;;;14.50;59.70;;;;;;5094815;28;19908;-64
2022/01/03 11:31:17;;;;;;;;;;;14.60;59.70;;;;;;5094855;28;19915;-64
2022/01/03 11:33:46;;;;;;;;;;;14.60;59.70;;;;;;5094843;28;19908;-64
2022/01/03 11:36:12;;;;;;;;;;;14.70;59.50;;;;;;5094567;28;19919;-64
2022/01/03 11:38:39;;;;;;;;;;;14.70;59.40;;;;;;5094739;28;20273;-64
2022/01/03 11:41:06;;;;;;;;;;;14.80;59.10;;;;;;5094776;28;20325;-65
2022/01/03 11:43:32;;;;;;;;;;;14.80;59.10;;;;;;5094021;28;19912;-64
2022/01/03 11:45:58;;;;;;;;;;;14.90;59.10;;;;;;5094504;28;19915;-64
2022/01/03 11:48:28;;;;;;;;;;;15.00;59.20;;;;;;5094343;28;20303;-64
2022/01/03 11:50:55;;;;;;;;;;;15.00;58.80;;;;;;5094856;28;19915;-64
2022/01/03 11:53:23;;;;;;;;;;;15.00;58.60;;;;;;5110675;28;19914;-64
2022/01/03 11:55:55;;;;;;;;;;;15.00;58.40;;;;;;5113082;28;19912;-64
2022/01/03 11:58:51;;;;;;;;;;;15.00;58.30;;;;;;5094467;28;20250;-64
2022/01/03 12:04:09;;;;;;;;;;;15.00;58.20;;;;;;5114687;28;20424;-64
2022/01/03 12:06:35;;;;;;;;;;;15.00;58.30;;;;;;5114591;28;20420;-64
2022/01/03 12:09:03;;;;;;;;;;;15.00;58.20;;;;;;5114598;28;20002;-65
2022/01/03 12:11:29;;;;;;;;;;;15.00;58.20;;;;;;5114578;28;19908;-64
2022/01/03 12:13:59;;;;;;;;;;;15.10;58.10;;;;;;5112684;28;19961;-65
2022/01/03 12:16:38;;;;;;;;;;;15.00;58.00;;;;;;5114227;28;19958;-64
2022/01/03 12:19:10;;;;;;;;;;;15.10;58.10;;;;;;5114092;28;20322;-63
2022/01/03 12:21:48;;;;;;;;;;;15.10;58.20;;;;;;5098619;28;19977;-62
2022/01/03 12:24:26;;;;;;;;;;;15.10;58.30;;;;;;5093852;28;19909;-61
2022/01/03 12:27:10;;;;;;;;;;;15.20;58.20;;;;;;5103591;28;20280;-62
2022/01/03 12:29:57;;;;;;;;;;;15.20;58.20;;;;;;5114277;28;19915;-62
2022/01/03 12:32:32;;;;;;;;;;;15.20;58.10;;;;;;5114117;28;19915;-61
2022/01/03 12:35:06;;;;;;;;;;;15.30;58.00;;;;;;5108976;28;19919;-62
2022/01/03 12:37:33;;;;;;;;;;;15.30;57.90;;;;;;5107175;28;19912;-61
2022/01/03 12:40:01;;;;;;;;;;;15.30;57.80;;;;;;5113917;28;19961;-62
2022/01/03 12:42:49;;;;;;;;;;;15.30;57.70;;;;;;5093592;28;19908;-61
2022/01/03 12:45:15;;;;;;;;;;;15.30;57.70;;;;;;5112378;28;20018;-61
2022/01/03 12:47:41;;;;;;;;;;;15.40;57.80;;;;;;5113961;28;20412;-62
2022/01/03 12:50:28;;;;;;;;;;;15.40;57.80;;;;;;5112798;28;19908;-62
2022/01/03 12:52:54;;;;;;;;;;;15.40;57.80;;;;;;5093403;28;19908;-62
2022/01/03 12:55:38;;;;;;;;;;;15.40;57.50;;;;;;5093768;28;19915;-65
2022/01/03 12:58:16;;;;;;;;;;;15.40;57.50;;;;;;5112490;28;19943;-65
2022/01/03 13:01:05;;;;;;;;;;;15.40;57.10;;;;;;5101900;28;19924;-65
2022/01/03 13:03:41;;;;;;;;;;;15.40;57.00;;;;;;5113828;28;20040;-65
2022/01/03 13:06:11;;;;;;;;;;;15.40;57.10;;;;;;5113683;28;19908;-65
2022/01/03 13:08:39;;;;;;;;;;;15.40;57.10;;;;;;5113494;28;19919;-65
2022/01/03 13:11:06;;;;;;;;;;;15.50;57.10;;;;;;5102755;28;20374;-64
2022/01/03 13:13:32;;;;;;;;;;;15.40;57.00;;;;;;5093166;28;20008;-64
2022/01/03 13:15:58;;;;;;;;;;;15.40;57.00;;;;;;5093257;28;19909;-64
2022/01/03 13:18:23;;;;;;;;;;;15.40;57.00;;;;;;5093288;28;19908;-64
2022/01/03 13:20:55;;;;;;;;;;;15.40;56.80;;;;;;5102116;28;19923;-65
2022/01/03 13:23:21;;;;;;;;;;;15.50;56.80;;;;;;5110222;28;20074;-66
2022/01/03 13:25:47;;;;;;;;;;;15.40;56.60;;;;;;5107320;28;19912;-65
2022/01/03 13:28:12;;;;;;;;;;;15.40;56.60;;;;;;5112823;28;19914;-65
2022/01/03 13:30:38;;;;;;;;;;;15.40;56.50;;;;;;5112790;28;20283;-65
2022/01/03 13:33:03;;;;;;;;;;;15.40;56.40;;;;;;5112809;28;19962;-66
2022/01/03 13:35:29;;;;;;;;;;;15.30;56.70;;;;;;5098330;28;20369;-65
2022/01/03 13:37:54;;;;;;;;;;;15.20;57.10;;;;;;5090939;28;19908;-74
2022/01/03 13:40:21;;;;;;;;;;;15.00;57.30;;;;;;5092415;28;19912;-74
2022/01/03 13:42:59;;;;;;;;;;;14.80;58.00;;;;;;5092476;28;19959;-80
2022/01/03 13:50:42;;;;;;;;;;;14.30;59.40;;;;;;5112527;28;19965;-69
2022/01/03 13:53:08;;;;;;;;;;;14.00;59.70;;;;;;5101242;28;19920;-68
2022/01/03 13:55:34;;;;;;;;;;;13.90;60.00;;;;;;5092212;28;19915;-67
2022/01/03 13:58:07;;;;;;;;;;;13.70;60.30;;;;;;5092189;28;20745;-66
2022/01/03 14:00:34;;;;;;;;;;;13.60;60.50;;;;;;5091974;28;19943;-66
2022/01/03 14:03:00;;;;;;;;;;;13.50;60.70;;;;;;5093044;28;19967;-65
2022/01/03 14:05:26;;;;;;;;;;;13.30;61.00;;;;;;5092277;28;19950;-65
2022/01/03 14:07:52;;;;;;;;;;;13.20;61.00;;;;;;5095377;28;19952;-68
2022/01/03 14:10:17;;;;;;;;;;;13.20;61.40;;;;;;5095494;28;20003;-70
2022/01/03 14:12:48;;;;;;;;;;;13.10;61.60;;;;;;5102454;28;19959;-68
2022/01/03 14:15:15;;;;;;;;;;;13.00;61.80;;;;;;5115825;28;19908;-69
2022/01/03 14:17:48;;;;;;;;;;;12.90;62.00;;;;;;5115900;28;20288;-69
2022/01/03 14:20:13;;;;;;;;;;;12.90;62.30;;;;;;5095336;28;20487;-68
2022/01/03 14:22:39;;;;;;;;;;;12.80;62.40;;;;;;5112713;28;19945;-69
2022/01/03 14:25:31;;;;;;;;;;;12.80;62.60;;;;;;5115849;28;19908;-69
2022/01/03 14:28:01;;;;;;;;;;;12.70;62.60;;;;;;5112671;27;20010;-69
2022/01/03 14:30:34;;;;;;;;;;;12.70;62.70;;;;;;5113594;28;19908;-66
2022/01/03 14:33:00;;;;;;;;;;;12.70;62.80;;;;;;5094384;28;20376;-67
2022/01/03 14:35:29;;;;;;;;;;;12.60;62.90;;;;;;5093140;28;20369;-69
2022/01/03 14:37:58;;;;;;;;;;;12.60;63.00;;;;;;5114957;28;19908;-68
2022/01/03 14:40:35;;;;;;;;;;;12.60;63.10;;;;;;5113324;28;19912;-66
2022/01/03 14:43:01;;;;;;;;;;;12.60;63.20;;;;;;5104711;27;19953;-67
2022/01/03 14:45:31;;;;;;;;;;;12.60;63.40;;;;;;5094425;28;20316;-66
2022/01/03 14:48:02;;;;;;;;;;;12.50;63.40;;;;;;5096012;28;20072;-66
2022/01/03 14:50:28;;;;;;;;;;;12.60;63.50;;;;;;5111995;28;19981;-69